sensor_id;sensor_type;location;lat;lon;timestamp;P1;durP1;ratioP1;P2;durP2;ratioP2
21438;SDS011;10880;50.302;18.736;2024-03-02T00:02:44;24.50;;;14.03;;
21438;SDS011;10880;50.302;18.736;2024-03-02T00:05:21;20.00;;;11.53;;
21438;SDS011;10880;50.302;18.736;2024-03-02T00:07:55;26.43;;;14.30;;
21438;SDS011;10880;50.302;18.736;2024-03-02T00:10:26;28.50;;;14.93;;
21438;SDS011;10880;50.302;18.736;2024-03-02T00:13:05;37.30;;;18.40;;
21438;SDS011;10880;50.302;18.736;2024-03-02T00:15:42;43.10;;;21.23;;
21438;SDS011;10880;50.302;18.736;2024-03-02T00:18:10;36.20;;;19.13;;
21438;SDS011;10880;50.302;18.736;2024-03-02T00:20:41;34.60;;;17.60;;
21438;SDS011;10880;50.302;18.736;2024-03-02T00:23:30;31.50;;;16.20;;
21438;SDS011;10880;50.302;18.736;2024-03-02T00:26:02;33.20;;;16.73;;
21438;SDS011;10880;50.302;18.736;2024-03-02T00:31:09;28.63;;;16.00;;
21438;SDS011;10880;50.302;18.736;2024-03-02T00:33:44;31.37;;;15.87;;
21438;SDS011;10880;50.302;18.736;2024-03-02T00:36:27;36.43;;;18.13;;
21438;SDS011;10880;50.302;18.736;2024-03-02T00:38:54;30.93;;;16.40;;
21438;SDS011;10880;50.302;18.736;2024-03-02T00:41:29;28.83;;;16.50;;
21438;SDS011;10880;50.302;18.736;2024-03-02T00:46:41;25.93;;;14.50;;
21438;SDS011;10880;50.302;18.736;2024-03-02T00:49:17;25.73;;;14.80;;
21438;SDS011;10880;50.302;18.736;2024-03-02T00:51:56;25.77;;;14.47;;
21438;SDS011;10880;50.302;18.736;2024-03-02T00:54:30;25.17;;;14.47;;
21438;SDS011;10880;50.302;18.736;2024-03-02T00:57:03;33.03;;;16.23;;
21438;SDS011;10880;50.302;18.736;2024-03-02T00:59:30;26.20;;;14.43;;
21438;SDS011;10880;50.302;18.736;2024-03-02T01:02:00;25.93;;;14.67;;
21438;SDS011;10880;50.302;18.736;2024-03-02T01:04:27;28.70;;;15.37;;
21438;SDS011;10880;50.302;18.736;2024-03-02T01:06:53;29.17;;;15.50;;
21438;SDS011;10880;50.302;18.736;2024-03-02T01:09:22;24.57;;;12.87;;
21438;SDS011;10880;50.302;18.736;2024-03-02T01:11:57;27.07;;;14.30;;
21438;SDS011;10880;50.302;18.736;2024-03-02T01:14:26;25.03;;;13.93;;
21438;SDS011;10880;50.302;18.736;2024-03-02T01:16:52;19.20;;;11.83;;
21438;SDS011;10880;50.302;18.736;2024-03-02T01:19:24;18.47;;;10.30;;
21438;SDS011;10880;50.302;18.736;2024-03-02T01:21:56;18.83;;;10.60;;
21438;SDS011;10880;50.302;18.736;2024-03-02T01:24:22;23.03;;;12.60;;
21438;SDS011;10880;50.302;18.736;2024-03-02T01:26:52;19.33;;;11.03;;
21438;SDS011;10880;50.302;18.736;2024-03-02T01:29:18;19.17;;;11.00;;
21438;SDS011;10880;50.302;18.736;2024-03-02T01:31:45;22.50;;;12.33;;
21438;SDS011;10880;50.302;18.736;2024-03-02T01:34:12;22.17;;;11.90;;
21438;SDS011;10880;50.302;18.736;2024-03-02T01:36:41;21.10;;;11.30;;
21438;SDS011;10880;50.302;18.736;2024-03-02T01:39:08;18.90;;;11.03;;
21438;SDS011;10880;50.302;18.736;2024-03-02T01:41:35;18.00;;;10.60;;
21438;SDS011;10880;50.302;18.736;2024-03-02T01:44:01;28.57;;;15.67;;
21438;SDS011;10880;50.302;18.736;2024-03-02T01:46:28;28.47;;;14.83;;
21438;SDS011;10880;50.302;18.736;2024-03-02T01:48:56;26.63;;;14.07;;
21438;SDS011;10880;50.302;18.736;2024-03-02T01:51:23;31.20;;;16.47;;
21438;SDS011;10880;50.302;18.736;2024-03-02T01:53:49;34.47;;;17.47;;
21438;SDS011;10880;50.302;18.736;2024-03-02T01:56:18;29.70;;;16.70;;
21438;SDS011;10880;50.302;18.736;2024-03-02T01:58:45;36.63;;;18.57;;
21438;SDS011;10880;50.302;18.736;2024-03-02T02:01:11;34.17;;;18.00;;
21438;SDS011;10880;50.302;18.736;2024-03-02T02:03:38;33.73;;;17.60;;
21438;SDS011;10880;50.302;18.736;2024-03-02T02:06:08;31.73;;;16.57;;
21438;SDS011;10880;50.302;18.736;2024-03-02T02:08:34;25.87;;;14.07;;
21438;SDS011;10880;50.302;18.736;2024-03-02T02:11:05;24.13;;;12.57;;
21438;SDS011;10880;50.302;18.736;2024-03-02T02:13:33;23.07;;;12.87;;
21438;SDS011;10880;50.302;18.736;2024-03-02T02:16:06;25.07;;;14.67;;
21438;SDS011;10880;50.302;18.736;2024-03-02T02:18:35;28.57;;;15.83;;
21438;SDS011;10880;50.302;18.736;2024-03-02T02:21:04;23.17;;;12.67;;
21438;SDS011;10880;50.302;18.736;2024-03-02T02:23:35;21.73;;;12.23;;
21438;SDS011;10880;50.302;18.736;2024-03-02T02:26:02;23.27;;;12.30;;
21438;SDS011;10880;50.302;18.736;2024-03-02T02:28:29;26.03;;;12.63;;
21438;SDS011;10880;50.302;18.736;2024-03-02T02:30:58;20.90;;;12.03;;
21438;SDS011;10880;50.302;18.736;2024-03-02T02:33:26;20.40;;;11.17;;
21438;SDS011;10880;50.302;18.736;2024-03-02T02:35:53;27.33;;;14.23;;
21438;SDS011;10880;50.302;18.736;2024-03-02T02:38:21;24.70;;;13.13;;
21438;SDS011;10880;50.302;18.736;2024-03-02T02:40:47;26.67;;;14.53;;
21438;SDS011;10880;50.302;18.736;2024-03-02T02:43:14;27.37;;;14.63;;
21438;SDS011;10880;50.302;18.736;2024-03-02T02:45:41;24.33;;;13.50;;
21438;SDS011;10880;50.302;18.736;2024-03-02T02:48:10;29.93;;;15.10;;
21438;SDS011;10880;50.302;18.736;2024-03-02T02:50:37;26.40;;;13.83;;
21438;SDS011;10880;50.302;18.736;2024-03-02T02:53:12;25.97;;;14.00;;
21438;SDS011;10880;50.302;18.736;2024-03-02T02:55:41;26.03;;;13.40;;
21438;SDS011;10880;50.302;18.736;2024-03-02T02:58:09;24.73;;;14.00;;
21438;SDS011;10880;50.302;18.736;2024-03-02T03:00:36;22.60;;;11.87;;
21438;SDS011;10880;50.302;18.736;2024-03-02T03:03:06;21.43;;;12.03;;
21438;SDS011;10880;50.302;18.736;2024-03-02T03:05:35;17.17;;;10.03;;
21438;SDS011;10880;50.302;18.736;2024-03-02T03:08:01;18.83;;;10.33;;
21438;SDS011;10880;50.302;18.736;2024-03-02T03:10:28;21.97;;;12.50;;
21438;SDS011;10880;50.302;18.736;2024-03-02T03:12:54;18.60;;;11.27;;
21438;SDS011;10880;50.302;18.736;2024-03-02T03:15:26;22.50;;;12.13;;
21438;SDS011;10880;50.302;18.736;2024-03-02T03:17:52;21.87;;;11.73;;
21438;SDS011;10880;50.302;18.736;2024-03-02T03:20:19;20.50;;;12.20;;
21438;SDS011;10880;50.302;18.736;2024-03-02T03:22:47;26.07;;;13.83;;
21438;SDS011;10880;50.302;18.736;2024-03-02T03:25:13;21.13;;;12.20;;
21438;SDS011;10880;50.302;18.736;2024-03-02T03:27:40;22.93;;;13.07;;
21438;SDS011;10880;50.302;18.736;2024-03-02T03:30:07;20.37;;;11.97;;
21438;SDS011;10880;50.302;18.736;2024-03-02T03:32:37;18.43;;;10.73;;
21438;SDS011;10880;50.302;18.736;2024-03-02T03:35:04;20.83;;;11.50;;
21438;SDS011;10880;50.302;18.736;2024-03-02T03:37:41;15.80;;;8.63;;
21438;SDS011;10880;50.302;18.736;2024-03-02T03:40:08;18.07;;;10.83;;
21438;SDS011;10880;50.302;18.736;2024-03-02T03:42:41;18.17;;;10.73;;
21438;SDS011;10880;50.302;18.736;2024-03-02T03:45:07;13.97;;;8.30;;
21438;SDS011;10880;50.302;18.736;2024-03-02T03:47:35;15.97;;;9.73;;
21438;SDS011;10880;50.302;18.736;2024-03-02T03:50:02;22.53;;;12.10;;
21438;SDS011;10880;50.302;18.736;2024-03-02T03:52:33;21.43;;;11.93;;
21438;SDS011;10880;50.302;18.736;2024-03-02T03:55:03;21.40;;;11.27;;
21438;SDS011;10880;50.302;18.736;2024-03-02T03:57:33;18.20;;;10.73;;
21438;SDS011;10880;50.302;18.736;2024-03-02T04:00:01;17.13;;;10.03;;
21438;SDS011;10880;50.302;18.736;2024-03-02T04:02:43;16.07;;;9.33;;
21438;SDS011;10880;50.302;18.736;2024-03-02T04:05:10;18.10;;;10.13;;
21438;SDS011;10880;50.302;18.736;2024-03-02T04:07:36;15.40;;;9.63;;
21438;SDS011;10880;50.302;18.736;2024-03-02T04:10:08;13.47;;;8.40;;
21438;SDS011;10880;50.302;18.736;2024-03-02T04:12:39;11.83;;;7.23;;
21438;SDS011;10880;50.302;18.736;2024-03-02T04:15:12;14.20;;;8.43;;
21438;SDS011;10880;50.302;18.736;2024-03-02T04:17:39;16.07;;;9.43;;
21438;SDS011;10880;50.302;18.736;2024-03-02T04:20:05;15.07;;;8.70;;
21438;SDS011;10880;50.302;18.736;2024-03-02T04:22:33;12.17;;;8.43;;
21438;SDS011;10880;50.302;18.736;2024-03-02T04:25:02;18.60;;;11.13;;
21438;SDS011;10880;50.302;18.736;2024-03-02T04:27:30;18.83;;;10.97;;
21438;SDS011;10880;50.302;18.736;2024-03-02T04:29:59;19.80;;;11.17;;
21438;SDS011;10880;50.302;18.736;2024-03-02T04:32:27;21.93;;;11.67;;
21438;SDS011;10880;50.302;18.736;2024-03-02T04:34:56;19.67;;;11.37;;
21438;SDS011;10880;50.302;18.736;2024-03-02T04:37:26;18.03;;;10.53;;
21438;SDS011;10880;50.302;18.736;2024-03-02T04:39:52;18.97;;;10.23;;
21438;SDS011;10880;50.302;18.736;2024-03-02T04:42:19;18.13;;;11.17;;
21438;SDS011;10880;50.302;18.736;2024-03-02T04:44:45;19.33;;;11.17;;
21438;SDS011;10880;50.302;18.736;2024-03-02T04:47:12;22.00;;;11.90;;
21438;SDS011;10880;50.302;18.736;2024-03-02T04:49:38;21.20;;;12.00;;
21438;SDS011;10880;50.302;18.736;2024-03-02T04:52:07;18.17;;;10.87;;
21438;SDS011;10880;50.302;18.736;2024-03-02T04:54:34;16.73;;;9.33;;
21438;SDS011;10880;50.302;18.736;2024-03-02T04:57:23;13.27;;;7.73;;
21438;SDS011;10880;50.302;18.736;2024-03-02T04:59:52;20.23;;;10.00;;
21438;SDS011;10880;50.302;18.736;2024-03-02T05:02:21;18.03;;;10.23;;
21438;SDS011;10880;50.302;18.736;2024-03-02T05:04:49;16.27;;;9.50;;
21438;SDS011;10880;50.302;18.736;2024-03-02T05:07:18;18.90;;;10.03;;
21438;SDS011;10880;50.302;18.736;2024-03-02T05:09:45;17.60;;;10.80;;
21438;SDS011;10880;50.302;18.736;2024-03-02T05:12:14;16.50;;;9.20;;
21438;SDS011;10880;50.302;18.736;2024-03-02T05:14:43;19.57;;;10.97;;
21438;SDS011;10880;50.302;18.736;2024-03-02T05:17:09;16.33;;;8.93;;
21438;SDS011;10880;50.302;18.736;2024-03-02T05:19:36;15.90;;;9.37;;
21438;SDS011;10880;50.302;18.736;2024-03-02T05:22:06;13.13;;;8.27;;
21438;SDS011;10880;50.302;18.736;2024-03-02T05:24:34;14.13;;;8.47;;
21438;SDS011;10880;50.302;18.736;2024-03-02T05:27:02;21.07;;;11.10;;
21438;SDS011;10880;50.302;18.736;2024-03-02T05:29:32;18.50;;;11.53;;
21438;SDS011;10880;50.302;18.736;2024-03-02T05:31:58;18.67;;;11.87;;
21438;SDS011;10880;50.302;18.736;2024-03-02T05:34:27;21.90;;;12.50;;
21438;SDS011;10880;50.302;18.736;2024-03-02T05:36:55;22.70;;;12.40;;
21438;SDS011;10880;50.302;18.736;2024-03-02T05:39:23;21.40;;;11.43;;
21438;SDS011;10880;50.302;18.736;2024-03-02T05:41:55;15.37;;;9.70;;
21438;SDS011;10880;50.302;18.736;2024-03-02T05:44:22;13.77;;;8.30;;
21438;SDS011;10880;50.302;18.736;2024-03-02T05:46:49;12.03;;;7.07;;
21438;SDS011;10880;50.302;18.736;2024-03-02T05:49:18;13.07;;;7.27;;
21438;SDS011;10880;50.302;18.736;2024-03-02T05:51:45;11.00;;;6.90;;
21438;SDS011;10880;50.302;18.736;2024-03-02T05:54:11;11.63;;;7.50;;
21438;SDS011;10880;50.302;18.736;2024-03-02T05:56:38;12.03;;;8.07;;
21438;SDS011;10880;50.302;18.736;2024-03-02T05:59:07;15.50;;;9.43;;
21438;SDS011;10880;50.302;18.736;2024-03-02T06:01:42;18.33;;;10.10;;
21438;SDS011;10880;50.302;18.736;2024-03-02T06:04:09;13.57;;;9.20;;
21438;SDS011;10880;50.302;18.736;2024-03-02T06:06:42;17.80;;;10.57;;
21438;SDS011;10880;50.302;18.736;2024-03-02T06:09:09;15.93;;;10.07;;
21438;SDS011;10880;50.302;18.736;2024-03-02T06:11:38;14.80;;;8.80;;
21438;SDS011;10880;50.302;18.736;2024-03-02T06:14:06;9.70;;;6.90;;
21438;SDS011;10880;50.302;18.736;2024-03-02T06:16:33;12.67;;;7.80;;
21438;SDS011;10880;50.302;18.736;2024-03-02T06:19:00;16.03;;;9.63;;
21438;SDS011;10880;50.302;18.736;2024-03-02T06:21:29;15.47;;;9.33;;
21438;SDS011;10880;50.302;18.736;2024-03-02T06:23:56;15.83;;;9.37;;
21438;SDS011;10880;50.302;18.736;2024-03-02T06:26:22;13.07;;;7.93;;
21438;SDS011;10880;50.302;18.736;2024-03-02T06:28:49;16.50;;;10.30;;
21438;SDS011;10880;50.302;18.736;2024-03-02T06:31:19;20.53;;;10.97;;
21438;SDS011;10880;50.302;18.736;2024-03-02T06:33:45;19.10;;;10.27;;
21438;SDS011;10880;50.302;18.736;2024-03-02T06:36:12;17.57;;;10.10;;
21438;SDS011;10880;50.302;18.736;2024-03-02T06:38:38;19.57;;;10.63;;
21438;SDS011;10880;50.302;18.736;2024-03-02T06:41:08;15.50;;;9.50;;
21438;SDS011;10880;50.302;18.736;2024-03-02T06:43:38;16.27;;;9.87;;
21438;SDS011;10880;50.302;18.736;2024-03-02T06:46:07;11.73;;;7.67;;
21438;SDS011;10880;50.302;18.736;2024-03-02T06:48:38;12.03;;;7.80;;
21438;SDS011;10880;50.302;18.736;2024-03-02T06:51:07;13.23;;;8.03;;
21438;SDS011;10880;50.302;18.736;2024-03-02T06:53:51;12.83;;;7.50;;
21438;SDS011;10880;50.302;18.736;2024-03-02T06:56:23;12.67;;;7.70;;
21438;SDS011;10880;50.302;18.736;2024-03-02T06:58:51;13.67;;;8.30;;
21438;SDS011;10880;50.302;18.736;2024-03-02T07:01:18;13.13;;;7.70;;
21438;SDS011;10880;50.302;18.736;2024-03-02T07:04:05;12.93;;;8.10;;
21438;SDS011;10880;50.302;18.736;2024-03-02T07:06:35;11.77;;;7.57;;
21438;SDS011;10880;50.302;18.736;2024-03-02T07:09:02;11.00;;;6.50;;
21438;SDS011;10880;50.302;18.736;2024-03-02T07:11:30;9.33;;;5.83;;
21438;SDS011;10880;50.302;18.736;2024-03-02T07:13:57;9.33;;;6.20;;
21438;SDS011;10880;50.302;18.736;2024-03-02T07:16:26;13.10;;;7.40;;
21438;SDS011;10880;50.302;18.736;2024-03-02T07:19:27;13.60;;;7.83;;
21438;SDS011;10880;50.302;18.736;2024-03-02T07:22:07;13.53;;;9.27;;
21438;SDS011;10880;50.302;18.736;2024-03-02T07:24:44;14.57;;;9.10;;
21438;SDS011;10880;50.302;18.736;2024-03-02T07:27:24;16.50;;;9.40;;
21438;SDS011;10880;50.302;18.736;2024-03-02T07:29:52;15.67;;;9.30;;
21438;SDS011;10880;50.302;18.736;2024-03-02T07:32:27;12.87;;;8.00;;
21438;SDS011;10880;50.302;18.736;2024-03-02T07:34:54;15.43;;;9.57;;
21438;SDS011;10880;50.302;18.736;2024-03-02T07:37:27;18.07;;;10.47;;
21438;SDS011;10880;50.302;18.736;2024-03-02T07:46:10;18.40;;;11.47;;
21438;SDS011;10880;50.302;18.736;2024-03-02T07:48:41;19.13;;;12.23;;
21438;SDS011;10880;50.302;18.736;2024-03-02T07:51:09;20.73;;;12.63;;
21438;SDS011;10880;50.302;18.736;2024-03-02T07:53:41;24.20;;;14.40;;
21438;SDS011;10880;50.302;18.736;2024-03-02T07:56:10;20.10;;;11.87;;
21438;SDS011;10880;50.302;18.736;2024-03-02T07:58:37;22.00;;;13.23;;
21438;SDS011;10880;50.302;18.736;2024-03-02T08:01:20;19.67;;;11.30;;
21438;SDS011;10880;50.302;18.736;2024-03-02T08:03:48;19.27;;;11.20;;
21438;SDS011;10880;50.302;18.736;2024-03-02T08:06:16;23.13;;;12.37;;
21438;SDS011;10880;50.302;18.736;2024-03-02T08:08:47;19.63;;;11.77;;
21438;SDS011;10880;50.302;18.736;2024-03-02T08:11:17;22.27;;;13.50;;
21438;SDS011;10880;50.302;18.736;2024-03-02T08:13:45;21.40;;;12.90;;
21438;SDS011;10880;50.302;18.736;2024-03-02T08:16:15;27.07;;;16.07;;
21438;SDS011;10880;50.302;18.736;2024-03-02T08:18:44;19.20;;;11.43;;
21438;SDS011;10880;50.302;18.736;2024-03-02T08:21:13;17.87;;;10.57;;
21438;SDS011;10880;50.302;18.736;2024-03-02T08:23:45;21.93;;;12.53;;
21438;SDS011;10880;50.302;18.736;2024-03-02T08:26:17;14.47;;;9.70;;
21438;SDS011;10880;50.302;18.736;2024-03-02T08:28:50;19.10;;;11.30;;
21438;SDS011;10880;50.302;18.736;2024-03-02T08:31:20;20.93;;;12.53;;
21438;SDS011;10880;50.302;18.736;2024-03-02T08:34:07;16.90;;;10.37;;
21438;SDS011;10880;50.302;18.736;2024-03-02T08:36:40;18.07;;;10.97;;
21438;SDS011;10880;50.302;18.736;2024-03-02T08:39:11;19.73;;;11.40;;
21438;SDS011;10880;50.302;18.736;2024-03-02T08:44:30;19.90;;;12.03;;
21438;SDS011;10880;50.302;18.736;2024-03-02T08:47:14;18.77;;;11.90;;
21438;SDS011;10880;50.302;18.736;2024-03-02T08:49:48;19.57;;;12.50;;
21438;SDS011;10880;50.302;18.736;2024-03-02T08:52:24;23.20;;;13.93;;
21438;SDS011;10880;50.302;18.736;2024-03-02T08:54:56;27.30;;;15.40;;
21438;SDS011;10880;50.302;18.736;2024-03-02T08:57:26;20.20;;;12.37;;
21438;SDS011;10880;50.302;18.736;2024-03-02T08:59:58;18.93;;;11.17;;
21438;SDS011;10880;50.302;18.736;2024-03-02T09:02:29;14.53;;;9.20;;
21438;SDS011;10880;50.302;18.736;2024-03-02T09:04:58;14.87;;;9.87;;
21438;SDS011;10880;50.302;18.736;2024-03-02T09:07:31;14.37;;;8.30;;
21438;SDS011;10880;50.302;18.736;2024-03-02T09:10:00;18.10;;;10.87;;
21438;SDS011;10880;50.302;18.736;2024-03-02T09:12:30;18.70;;;11.77;;
21438;SDS011;10880;50.302;18.736;2024-03-02T09:15:02;19.50;;;11.97;;
21438;SDS011;10880;50.302;18.736;2024-03-02T09:17:33;21.07;;;12.70;;
21438;SDS011;10880;50.302;18.736;2024-03-02T09:20:04;17.83;;;11.47;;
21438;SDS011;10880;50.302;18.736;2024-03-02T09:22:38;24.37;;;15.13;;
21438;SDS011;10880;50.302;18.736;2024-03-02T09:25:09;29.93;;;16.87;;
21438;SDS011;10880;50.302;18.736;2024-03-02T09:27:37;29.20;;;16.80;;
21438;SDS011;10880;50.302;18.736;2024-03-02T09:30:10;28.53;;;15.57;;
21438;SDS011;10880;50.302;18.736;2024-03-02T09:32:37;25.60;;;14.03;;
21438;SDS011;10880;50.302;18.736;2024-03-02T09:35:04;23.73;;;13.97;;
21438;SDS011;10880;50.302;18.736;2024-03-02T09:41:08;24.57;;;14.40;;
21438;SDS011;10880;50.302;18.736;2024-03-02T09:43:35;23.10;;;13.93;;
21438;SDS011;10880;50.302;18.736;2024-03-02T09:49:39;23.67;;;13.43;;
21438;SDS011;10880;50.302;18.736;2024-03-02T09:55:18;21.27;;;12.90;;
21438;SDS011;10880;50.302;18.736;2024-03-02T10:00:44;22.50;;;13.00;;
21438;SDS011;10880;50.302;18.736;2024-03-02T10:03:11;23.83;;;13.90;;
21438;SDS011;10880;50.302;18.736;2024-03-02T10:05:39;23.73;;;14.70;;
21438;SDS011;10880;50.302;18.736;2024-03-02T10:08:05;29.20;;;16.27;;
21438;SDS011;10880;50.302;18.736;2024-03-02T10:13:06;15.67;;;9.87;;
21438;SDS011;10880;50.302;18.736;2024-03-02T10:15:33;21.10;;;12.13;;
21438;SDS011;10880;50.302;18.736;2024-03-02T10:18:00;21.87;;;12.67;;
21438;SDS011;10880;50.302;18.736;2024-03-02T10:20:32;19.13;;;11.63;;
21438;SDS011;10880;50.302;18.736;2024-03-02T10:27:38;21.20;;;11.57;;
21438;SDS011;10880;50.302;18.736;2024-03-02T10:30:10;18.23;;;10.93;;
21438;SDS011;10880;50.302;18.736;2024-03-02T10:32:50;15.30;;;10.13;;
21438;SDS011;10880;50.302;18.736;2024-03-02T10:35:21;14.17;;;9.03;;
21438;SDS011;10880;50.302;18.736;2024-03-02T10:37:56;15.47;;;9.80;;
21438;SDS011;10880;50.302;18.736;2024-03-02T10:40:30;16.47;;;9.70;;
21438;SDS011;10880;50.302;18.736;2024-03-02T10:43:01;17.70;;;10.80;;
21438;SDS011;10880;50.302;18.736;2024-03-02T10:45:32;21.10;;;12.37;;
21438;SDS011;10880;50.302;18.736;2024-03-02T10:48:06;20.13;;;11.00;;
21438;SDS011;10880;50.302;18.736;2024-03-02T10:50:33;13.00;;;8.23;;
21438;SDS011;10880;50.302;18.736;2024-03-02T10:53:23;23.00;;;13.43;;
21438;SDS011;10880;50.302;18.736;2024-03-02T10:55:53;21.07;;;12.30;;
21438;SDS011;10880;50.302;18.736;2024-03-02T10:58:36;20.33;;;12.13;;
21438;SDS011;10880;50.302;18.736;2024-03-02T11:01:03;20.87;;;12.40;;
21438;SDS011;10880;50.302;18.736;2024-03-02T11:03:37;21.17;;;11.80;;
21438;SDS011;10880;50.302;18.736;2024-03-02T11:06:05;21.37;;;12.37;;
21438;SDS011;10880;50.302;18.736;2024-03-02T11:08:39;18.80;;;10.53;;
21438;SDS011;10880;50.302;18.736;2024-03-02T11:11:15;22.87;;;13.17;;
21438;SDS011;10880;50.302;18.736;2024-03-02T11:13:50;18.13;;;11.20;;
21438;SDS011;10880;50.302;18.736;2024-03-02T11:16:36;17.47;;;10.47;;
21438;SDS011;10880;50.302;18.736;2024-03-02T11:19:13;14.50;;;9.33;;
21438;SDS011;10880;50.302;18.736;2024-03-02T11:21:45;16.67;;;10.40;;
21438;SDS011;10880;50.302;18.736;2024-03-02T11:24:30;18.47;;;11.43;;
21438;SDS011;10880;50.302;18.736;2024-03-02T11:27:09;21.87;;;13.07;;
21438;SDS011;10880;50.302;18.736;2024-03-02T11:29:47;18.07;;;11.57;;
21438;SDS011;10880;50.302;18.736;2024-03-02T11:32:17;17.67;;;10.40;;
21438;SDS011;10880;50.302;18.736;2024-03-02T11:34:48;15.23;;;9.70;;
21438;SDS011;10880;50.302;18.736;2024-03-02T11:37:19;15.27;;;10.20;;
21438;SDS011;10880;50.302;18.736;2024-03-02T11:39:46;15.80;;;9.57;;
21438;SDS011;10880;50.302;18.736;2024-03-02T11:42:18;21.97;;;12.30;;
21438;SDS011;10880;50.302;18.736;2024-03-02T11:44:46;21.73;;;12.67;;
21438;SDS011;10880;50.302;18.736;2024-03-02T11:47:16;16.43;;;10.33;;
21438;SDS011;10880;50.302;18.736;2024-03-02T11:49:48;19.03;;;11.23;;
21438;SDS011;10880;50.302;18.736;2024-03-02T11:52:35;19.53;;;11.80;;
21438;SDS011;10880;50.302;18.736;2024-03-02T11:55:04;19.97;;;11.97;;
21438;SDS011;10880;50.302;18.736;2024-03-02T11:57:33;16.63;;;10.13;;
21438;SDS011;10880;50.302;18.736;2024-03-02T12:00:01;20.47;;;12.50;;
21438;SDS011;10880;50.302;18.736;2024-03-02T12:02:30;19.13;;;11.53;;
21438;SDS011;10880;50.302;18.736;2024-03-02T12:04:57;17.53;;;10.57;;
21438;SDS011;10880;50.302;18.736;2024-03-02T12:07:26;12.53;;;8.87;;
21438;SDS011;10880;50.302;18.736;2024-03-02T12:09:59;17.23;;;9.50;;
21438;SDS011;10880;50.302;18.736;2024-03-02T12:12:29;17.40;;;10.37;;
21438;SDS011;10880;50.302;18.736;2024-03-02T12:14:56;16.30;;;10.43;;
21438;SDS011;10880;50.302;18.736;2024-03-02T12:17:22;15.23;;;10.00;;
21438;SDS011;10880;50.302;18.736;2024-03-02T12:22:50;12.70;;;8.07;;
21438;SDS011;10880;50.302;18.736;2024-03-02T12:25:19;17.20;;;10.33;;
21438;SDS011;10880;50.302;18.736;2024-03-02T12:27:50;16.43;;;9.40;;
21438;SDS011;10880;50.302;18.736;2024-03-02T12:30:19;14.63;;;9.37;;
21438;SDS011;10880;50.302;18.736;2024-03-02T12:32:46;16.50;;;10.13;;
21438;SDS011;10880;50.302;18.736;2024-03-02T12:35:14;17.63;;;10.63;;
21438;SDS011;10880;50.302;18.736;2024-03-02T12:37:44;14.83;;;8.83;;
21438;SDS011;10880;50.302;18.736;2024-03-02T12:40:12;15.13;;;8.33;;
21438;SDS011;10880;50.302;18.736;2024-03-02T12:42:40;12.37;;;8.70;;
21438;SDS011;10880;50.302;18.736;2024-03-02T12:45:11;17.47;;;10.57;;
21438;SDS011;10880;50.302;18.736;2024-03-02T12:47:39;16.40;;;10.60;;
21438;SDS011;10880;50.302;18.736;2024-03-02T12:50:07;13.33;;;8.50;;
21438;SDS011;10880;50.302;18.736;2024-03-02T12:52:34;16.20;;;9.70;;
21438;SDS011;10880;50.302;18.736;2024-03-02T12:55:01;16.37;;;9.90;;
21438;SDS011;10880;50.302;18.736;2024-03-02T12:57:30;26.07;;;14.53;;
21438;SDS011;10880;50.302;18.736;2024-03-02T13:00:02;19.67;;;12.07;;
21438;SDS011;10880;50.302;18.736;2024-03-02T13:02:35;15.67;;;9.80;;
21438;SDS011;10880;50.302;18.736;2024-03-02T13:05:02;15.70;;;10.13;;
21438;SDS011;10880;50.302;18.736;2024-03-02T13:07:31;15.23;;;9.50;;
21438;SDS011;10880;50.302;18.736;2024-03-02T13:10:18;16.63;;;10.67;;
21438;SDS011;10880;50.302;18.736;2024-03-02T13:12:48;20.47;;;12.63;;
21438;SDS011;10880;50.302;18.736;2024-03-02T13:15:27;21.07;;;12.70;;
21438;SDS011;10880;50.302;18.736;2024-03-02T13:18:22;21.23;;;12.23;;
21438;SDS011;10880;50.302;18.736;2024-03-02T13:20:51;14.10;;;9.50;;
21438;SDS011;10880;50.302;18.736;2024-03-02T13:23:26;15.83;;;9.87;;
21438;SDS011;10880;50.302;18.736;2024-03-02T13:25:52;11.93;;;8.60;;
21438;SDS011;10880;50.302;18.736;2024-03-02T13:28:28;14.13;;;8.90;;
21438;SDS011;10880;50.302;18.736;2024-03-02T13:31:04;18.20;;;10.40;;
21438;SDS011;10880;50.302;18.736;2024-03-02T13:33:45;13.20;;;8.50;;
21438;SDS011;10880;50.302;18.736;2024-03-02T13:36:13;17.73;;;10.03;;
21438;SDS011;10880;50.302;18.736;2024-03-02T13:38:55;18.00;;;11.50;;
21438;SDS011;10880;50.302;18.736;2024-03-02T13:42:04;18.30;;;10.97;;
21438;SDS011;10880;50.302;18.736;2024-03-02T13:44:40;16.13;;;9.43;;
21438;SDS011;10880;50.302;18.736;2024-03-02T13:47:22;16.50;;;9.63;;
21438;SDS011;10880;50.302;18.736;2024-03-02T13:50:03;11.73;;;8.30;;
21438;SDS011;10880;50.302;18.736;2024-03-02T13:52:32;15.00;;;9.00;;
21438;SDS011;10880;50.302;18.736;2024-03-02T13:58:01;14.73;;;9.47;;
21438;SDS011;10880;50.302;18.736;2024-03-02T14:00:37;11.30;;;7.37;;
21438;SDS011;10880;50.302;18.736;2024-03-02T14:03:09;11.50;;;8.07;;
21438;SDS011;10880;50.302;18.736;2024-03-02T14:05:49;11.00;;;7.90;;
21438;SDS011;10880;50.302;18.736;2024-03-02T14:08:21;11.27;;;7.80;;
21438;SDS011;10880;50.302;18.736;2024-03-02T14:10:58;12.30;;;8.60;;
21438;SDS011;10880;50.302;18.736;2024-03-02T14:13:26;12.80;;;8.77;;
21438;SDS011;10880;50.302;18.736;2024-03-02T14:16:18;13.50;;;9.10;;
21438;SDS011;10880;50.302;18.736;2024-03-02T14:23:07;12.90;;;7.70;;
21438;SDS011;10880;50.302;18.736;2024-03-02T14:33:13;12.20;;;8.10;;
21438;SDS011;10880;50.302;18.736;2024-03-02T14:36:05;9.17;;;6.80;;
21438;SDS011;10880;50.302;18.736;2024-03-02T14:47:49;7.83;;;5.87;;
21438;SDS011;10880;50.302;18.736;2024-03-02T14:56:52;7.40;;;5.70;;
21438;SDS011;10880;50.302;18.736;2024-03-02T14:59:26;6.20;;;4.60;;
21438;SDS011;10880;50.302;18.736;2024-03-02T15:02:25;6.47;;;4.70;;
21438;SDS011;10880;50.302;18.736;2024-03-02T15:05:00;5.60;;;4.60;;
21438;SDS011;10880;50.302;18.736;2024-03-02T15:07:37;6.23;;;4.67;;
21438;SDS011;10880;50.302;18.736;2024-03-02T15:10:10;6.60;;;4.87;;
21438;SDS011;10880;50.302;18.736;2024-03-02T15:12:41;6.00;;;4.23;;
21438;SDS011;10880;50.302;18.736;2024-03-02T15:15:24;6.67;;;4.73;;
21438;SDS011;10880;50.302;18.736;2024-03-02T15:17:54;7.53;;;4.97;;
21438;SDS011;10880;50.302;18.736;2024-03-02T15:20:40;6.57;;;4.50;;
21438;SDS011;10880;50.302;18.736;2024-03-02T15:23:15;8.83;;;6.30;;
21438;SDS011;10880;50.302;18.736;2024-03-02T15:25:49;8.73;;;6.70;;
21438;SDS011;10880;50.302;18.736;2024-03-02T15:28:20;7.20;;;5.43;;
21438;SDS011;10880;50.302;18.736;2024-03-02T15:30:48;5.33;;;4.50;;
21438;SDS011;10880;50.302;18.736;2024-03-02T15:33:24;6.50;;;4.67;;
21438;SDS011;10880;50.302;18.736;2024-03-02T15:38:54;6.63;;;4.33;;
21438;SDS011;10880;50.302;18.736;2024-03-02T15:44:12;6.07;;;4.57;;
21438;SDS011;10880;50.302;18.736;2024-03-02T15:47:13;6.37;;;5.00;;
21438;SDS011;10880;50.302;18.736;2024-03-02T15:53:09;7.77;;;5.83;;
21438;SDS011;10880;50.302;18.736;2024-03-02T15:58:43;6.00;;;5.03;;